Date,TemperatureHighF,TemperatureAvgF,TemperatureLowF,DewpointHighF,DewpointAvgF,DewpointLowF,HumidityHigh,HumidityAvg,HumidityLow,PressureMaxIn,PressureMinIn,WindSpeedMaxMPH,WindSpeedAvgMPH,GustSpeedMaxMPH,PrecipitationSumIn
2013-3-1,38,37,36,33,30,28,85,77,72,29.65,29.50,8,3,12,0.00
2013-3-2,37,36,33,29,29,27,80,75,73,29.65,29.63,8,1,13,0.00
2013-3-3,42,35,32,32,29,26,87,78,66,29.64,29.53,8,3,13,0.00
2013-3-4,41,34,28,28,26,22,82,72,58,29.72,29.57,18,7,30,0.01
2013-3-5,47,37,30,34,29,24,87,74,58,30.03,29.72,11,3,20,0.00
2013-3-6,39,36,34,36,33,31,88,86,79,30.04,29.99,21,6,30,0.10
2013-3-7,35,33,31,32,29,27,88,87,84,30.00,29.94,19,10,29,0.15
2013-3-8,37,33,30,33,28,26,87,84,68,30.11,29.89,24,8,27,0.07
2013-3-9,49,38,31,35,28,24,87,69,43,30.31,30.11,15,4,23,0.33
2013-3-10,47,37,30,36,31,26,87,80,64,30.38,30.28,6,1,9,0.01
2013-3-11,54,42,38,43,36,34,87,82,64,30.30,30.12,11,3,15,0.00
2013-3-12,54,47,42,50,42,37,86,82,78,30.12,29.70,25,6,35,0.47
2013-3-13,52,43,35,44,33,24,87,67,43,29.76,29.68,16,4,22,0.00
2013-3-14,36,31,23,26,18,10,74,59,47,29.81,29.69,18,4,28,0.00
2013-3-15,41,29,20,26,14,11,70,56,34,29.84,29.62,17,3,25,0.00
2013-3-16,41,34,28,30,20,15,86,57,39,29.83,29.66,7,2,16,0.00
2013-3-17,40,32,26,20,15,10,73,51,32,30.19,29.83,17,3,27,0.00
2013-3-18,39,31,20,27,14,5,87,50,31,30.42,30.18,8,1,14,0.00
2013-3-19,37,33,29,32,29,26,87,85,84,30.18,29.58,17,5,27,0.49
2013-3-20,39,32,26,27,23,21,94,71,53,29.78,29.67,17,4,28,0.30
2013-3-21,37,31,27,29,24,20,87,77,60,29.79,29.58,8,1,10,0.08
2013-3-22,41,33,26,26,22,18,85,65,49,29.71,29.58,17,6,25,0.01
2013-3-23,42,37,34,25,24,22,68,59,47,29.77,29.64,17,10,28,0.00
2013-3-24,48,39,31,30,26,22,77,60,47,29.80,29.73,10,3,17,0.00
2013-3-25,44,37,32,35,30,26,82,76,60,29.74,29.47,16,4,25,0.00
2013-3-26,49,39,37,31,29,23,80,69,44,29.76,29.51,12,3,16,0.00
2013-3-27,56,43,33,33,28,22,69,55,38,29.84,29.72,17,4,24,0.00
2013-3-28,49,43,37,37,35,32,88,74,53,29.98,29.84,15,3,18,0.03
2013-3-29,57,47,37,38,34,30,84,62,41,30.02,29.94,12,4,20,0.00
2013-3-30,57,45,37,35,29,23,78,56,30,30.07,29.98,12,2,16,0.00
2013-3-31,59,46,31,43,31,25,89,60,32,30.08,29.68,22,4,31,0.05